createdAt,value
2023-01-04T00:02:12.028Z,10.50
2023-01-04T00:04:40.592Z,10.60
2023-01-04T00:07:09.220Z,10.50
2023-01-04T00:09:37.571Z,10.50
2023-01-04T00:12:08.194Z,10.60
2023-01-04T00:14:36.573Z,10.60
2023-01-04T00:17:04.946Z,10.60
2023-01-04T00:19:33.994Z,10.50
2023-01-04T00:22:02.662Z,10.50
2023-01-04T00:24:31.083Z,10.50
2023-01-04T00:26:59.555Z,10.60
2023-01-04T00:29:29.354Z,10.60
2023-01-04T00:31:58.122Z,10.60
2023-01-04T00:34:27.033Z,10.60
2023-01-04T00:36:55.405Z,10.60
2023-01-04T00:39:24.192Z,10.60
2023-01-04T00:41:59.812Z,10.60
2023-01-04T00:44:31.676Z,10.60
2023-01-04T00:47:01.329Z,10.60
2023-01-04T00:49:31.106Z,10.60
2023-01-04T00:52:00.394Z,10.60
2023-01-04T00:54:29.145Z,10.60
2023-01-04T00:56:57.787Z,10.60
2023-01-04T00:59:26.365Z,10.60
2023-01-04T01:01:56.544Z,10.60
2023-01-04T01:04:26.451Z,10.60
2023-01-04T01:06:55.053Z,10.60
2023-01-04T01:09:24.235Z,10.70
2023-01-04T01:11:54.495Z,10.70
2023-01-04T01:14:26.544Z,10.70
2023-01-04T01:16:58.139Z,10.70
2023-01-04T01:19:29.656Z,10.70
2023-01-04T01:21:58.930Z,10.70
2023-01-04T01:24:28.576Z,10.70
2023-01-04T01:26:57.580Z,10.70
2023-01-04T01:29:26.819Z,10.70
2023-01-04T01:31:56.971Z,10.70
2023-01-04T01:34:25.412Z,10.70
2023-01-04T01:36:53.966Z,10.70
2023-01-04T01:39:22.384Z,10.70
2023-01-04T01:41:51.282Z,10.70
2023-01-04T01:45:00.136Z,10.70
2023-01-04T01:47:39.411Z,10.70
2023-01-04T01:50:22.109Z,10.80
2023-01-04T01:52:51.885Z,10.70
2023-01-04T01:55:20.595Z,10.70
2023-01-04T01:57:51.652Z,10.70
2023-01-04T02:00:21.407Z,10.70
2023-01-04T02:03:07.274Z,10.70
2023-01-04T02:05:37.312Z,10.70
2023-01-04T02:08:07.607Z,10.70
2023-01-04T02:10:36.440Z,10.70
2023-01-04T02:13:11.002Z,10.70
2023-01-04T02:15:56.153Z,10.70
2023-01-04T02:18:33.927Z,10.70
2023-01-04T02:21:08.408Z,10.70
2023-01-04T02:24:13.519Z,10.70
2023-01-04T02:27:07.397Z,10.70
2023-01-04T02:30:22.349Z,10.70
2023-01-04T02:33:07.372Z,10.70
2023-01-04T02:35:45.026Z,10.70
2023-01-04T02:38:23.436Z,10.70
2023-01-04T02:41:05.052Z,10.70
2023-01-04T02:43:59.289Z,10.70
2023-01-04T02:46:34.613Z,10.70
2023-01-04T02:49:22.571Z,10.70
2023-01-04T02:51:51.701Z,10.60
2023-01-04T02:54:25.197Z,10.70
2023-01-04T02:57:08.862Z,10.60
2023-01-04T03:00:08.393Z,10.70
2023-01-04T03:03:18.156Z,10.70
2023-01-04T03:06:18.251Z,10.60
2023-01-04T03:08:57.177Z,10.60
2023-01-04T03:11:50.188Z,10.60
2023-01-04T03:14:31.907Z,10.60
2023-01-04T03:17:05.567Z,10.60
2023-01-04T03:19:55.120Z,10.60
2023-01-04T03:22:51.673Z,10.70
2023-01-04T03:25:42.392Z,10.60
2023-01-04T03:28:31.149Z,10.70
2023-01-04T03:31:25.645Z,10.70
2023-01-04T03:34:11.660Z,10.70
2023-01-04T03:36:53.652Z,10.60
2023-01-04T03:39:54.868Z,10.70
2023-01-04T03:42:48.315Z,10.70
2023-01-04T03:45:38.739Z,10.70
2023-01-04T03:48:33.630Z,10.70
2023-01-04T03:51:14.803Z,10.70
2023-01-04T03:53:53.091Z,10.70
2023-01-04T03:56:25.411Z,10.70
2023-01-04T03:58:54.902Z,10.70
2023-01-04T04:01:27.096Z,10.70
2023-01-04T04:04:13.487Z,10.70
2023-01-04T04:07:00.160Z,10.80
2023-01-04T04:09:28.645Z,10.80
2023-01-04T04:11:59.158Z,10.80
2023-01-04T04:14:27.871Z,10.80
2023-01-04T04:16:56.582Z,10.80
2023-01-04T04:19:25.089Z,10.80
2023-01-04T04:21:53.451Z,10.80
2023-01-04T04:24:24.455Z,10.80
2023-01-04T04:26:54.462Z,10.90
2023-01-04T04:29:25.014Z,10.80
2023-01-04T04:31:53.550Z,10.90
2023-01-04T04:34:22.030Z,10.90
2023-01-04T04:36:50.375Z,10.90
2023-01-04T04:39:19.150Z,10.90
2023-01-04T04:41:46.543Z,10.90
2023-01-04T04:44:18.228Z,10.90
2023-01-04T04:46:49.623Z,10.90
2023-01-04T04:49:19.406Z,10.90
2023-01-04T04:51:48.466Z,10.90
2023-01-04T04:54:19.787Z,10.90
2023-01-04T04:56:49.335Z,10.90
2023-01-04T04:59:18.349Z,10.90
2023-01-04T05:01:48.608Z,10.90
2023-01-04T05:04:19.490Z,11.00
2023-01-04T05:06:50.582Z,11.00
2023-01-04T05:09:19.040Z,11.00
2023-01-04T05:12:04.909Z,11.00
2023-01-04T05:14:33.417Z,11.00
2023-01-04T05:17:03.367Z,11.00
2023-01-04T05:19:32.088Z,11.00
2023-01-04T05:22:00.577Z,11.00
2023-01-04T05:24:28.915Z,11.00
2023-01-04T05:26:57.269Z,11.00
2023-01-04T05:29:45.580Z,11.00
2023-01-04T05:32:15.702Z,11.00
2023-01-04T05:34:44.069Z,11.00
2023-01-04T05:37:12.477Z,11.10
2023-01-04T05:39:40.993Z,11.10
2023-01-04T05:42:28.851Z,11.10
2023-01-04T05:44:59.680Z,11.10
2023-01-04T05:47:30.537Z,11.10
2023-01-04T05:49:58.979Z,11.10
2023-01-04T05:52:27.826Z,11.10
2023-01-04T05:54:56.371Z,11.10
2023-01-04T05:57:24.815Z,11.10
2023-01-04T05:59:53.304Z,11.10
2023-01-04T06:02:26.260Z,11.10
2023-01-04T06:04:59.368Z,11.20
2023-01-04T06:07:29.285Z,11.20
2023-01-04T06:09:58.111Z,11.20
2023-01-04T06:12:27.063Z,11.20
2023-01-04T06:14:55.739Z,11.20
2023-01-04T06:17:24.224Z,11.30
2023-01-04T06:19:52.827Z,11.30
2023-01-04T06:22:23.179Z,11.30
2023-01-04T06:24:51.503Z,11.30
2023-01-04T06:27:19.864Z,11.30
2023-01-04T06:29:48.348Z,11.30
2023-01-04T06:32:17.199Z,11.30
2023-01-04T06:34:45.898Z,11.30
2023-01-04T06:37:14.457Z,11.40
2023-01-04T06:39:44.350Z,11.40
2023-01-04T06:42:26.649Z,11.40
2023-01-04T06:44:55.081Z,11.40
2023-01-04T06:47:23.738Z,11.40
2023-01-04T06:49:52.075Z,11.40
2023-01-04T06:52:20.781Z,11.40
2023-01-04T06:54:50.769Z,11.50
2023-01-04T06:57:19.781Z,11.40
2023-01-04T06:59:48.543Z,11.50
2023-01-04T07:02:17.758Z,11.50
2023-01-04T07:04:46.500Z,11.50
2023-01-04T07:07:14.951Z,11.50
2023-01-04T07:09:43.409Z,11.50
2023-01-04T07:12:13.132Z,11.50
2023-01-04T07:14:41.439Z,11.50
2023-01-04T07:17:09.758Z,11.50
2023-01-04T07:19:38.150Z,11.50
2023-01-04T07:22:06.578Z,11.50
2023-01-04T07:24:35.058Z,11.50
2023-01-04T07:27:03.603Z,11.50
2023-01-04T07:29:33.868Z,11.50
2023-01-04T07:32:02.303Z,11.50
2023-01-04T07:34:31.424Z,11.50
2023-01-04T07:37:00.918Z,11.60
2023-01-04T07:39:29.351Z,11.60
2023-01-04T07:41:58.075Z,11.60
2023-01-04T07:44:28.083Z,11.60
2023-01-04T07:46:58.454Z,11.60
2023-01-04T07:49:27.106Z,11.60
2023-01-04T07:51:55.980Z,11.60
2023-01-04T07:54:25.057Z,11.60
2023-01-04T07:56:53.748Z,11.60
2023-01-04T07:59:23.119Z,11.60
2023-01-04T08:01:52.418Z,11.60
2023-01-04T08:04:29.621Z,11.60
2023-01-04T08:06:59.839Z,11.60
2023-01-04T08:09:28.359Z,11.60
2023-01-04T08:11:56.896Z,11.60
2023-01-04T08:14:25.921Z,11.70
2023-01-04T08:16:54.735Z,11.60
2023-01-04T08:19:24.820Z,11.60
2023-01-04T08:21:53.192Z,11.70
2023-01-04T08:24:21.960Z,11.70
2023-01-04T08:26:50.592Z,11.70
2023-01-04T08:29:19.056Z,11.70
2023-01-04T08:31:48.532Z,11.70
2023-01-04T08:34:17.380Z,11.70
2023-01-04T08:36:49.654Z,11.70
2023-01-04T08:39:18.576Z,11.70
2023-01-04T08:42:00.219Z,11.70
2023-01-04T08:44:29.819Z,11.70
2023-01-04T08:46:59.031Z,11.70
2023-01-04T08:49:27.967Z,11.80
2023-01-04T08:51:58.256Z,11.80
2023-01-04T08:54:26.789Z,11.80
2023-01-04T08:56:55.315Z,11.80
2023-01-04T08:59:23.725Z,11.80
2023-01-04T09:01:52.456Z,11.80
2023-01-04T09:04:20.992Z,11.80
2023-01-04T09:06:49.350Z,11.90
2023-01-04T09:09:19.703Z,11.90
2023-01-04T09:11:48.124Z,11.90
2023-01-04T09:14:16.640Z,11.90
2023-01-04T09:16:45.275Z,12.00
2023-01-04T09:19:19.671Z,12.00
2023-01-04T09:21:50.379Z,12.00
2023-01-04T09:24:20.714Z,12.00
2023-01-04T09:26:49.197Z,12.10
2023-01-04T09:29:18.141Z,12.10
2023-01-04T09:31:46.593Z,12.10
2023-01-04T09:34:17.542Z,12.10
2023-01-04T09:36:48.263Z,12.10
2023-01-04T09:39:24.003Z,12.10
2023-01-04T09:41:59.159Z,12.20
2023-01-04T09:47:37.315Z,12.20
2023-01-04T09:50:13.473Z,12.20
2023-01-04T09:52:56.681Z,12.30
2023-01-04T09:55:38.883Z,12.30
2023-01-04T09:58:27.936Z,12.30
2023-01-04T10:01:04.832Z,12.30
2023-01-04T10:03:36.036Z,12.30
2023-01-04T10:06:05.765Z,12.30
2023-01-04T10:08:34.902Z,12.30
2023-01-04T10:11:20.792Z,12.40
2023-01-04T10:14:18.428Z,12.40
2023-01-04T10:17:14.172Z,12.40
2023-01-04T10:23:05.116Z,12.40
2023-01-04T10:25:43.672Z,12.40
2023-01-04T10:28:30.863Z,12.50
2023-01-04T10:31:39.287Z,12.50
2023-01-04T10:34:06.843Z,12.50
2023-01-04T10:36:35.858Z,12.50
2023-01-04T10:39:07.718Z,12.50
2023-01-04T10:41:44.012Z,12.50
2023-01-04T10:44:19.964Z,12.50
2023-01-04T10:46:59.062Z,12.60
2023-01-04T10:49:36.964Z,12.60
2023-01-04T10:52:12.199Z,12.60
2023-01-04T10:54:46.362Z,12.60
2023-01-04T10:57:22.577Z,12.60
2023-01-04T11:00:03.712Z,12.60
2023-01-04T11:02:41.858Z,12.60
2023-01-04T11:05:20.824Z,12.60
2023-01-04T11:07:55.228Z,12.60
2023-01-04T11:10:30.062Z,12.60
2023-01-04T11:12:58.763Z,12.70
2023-01-04T11:15:31.216Z,12.70
2023-01-04T11:18:04.795Z,12.70
2023-01-04T11:20:38.069Z,12.70
2023-01-04T11:23:12.516Z,12.70
2023-01-04T11:25:53.606Z,12.70
2023-01-04T11:28:29.612Z,12.70
2023-01-04T11:31:05.463Z,12.70
2023-01-04T11:33:54.429Z,12.70
2023-01-04T11:36:41.353Z,12.70
2023-01-04T11:39:10.370Z,12.70
2023-01-04T11:41:38.889Z,12.70
2023-01-04T11:44:10.632Z,12.80
2023-01-04T11:46:40.438Z,12.80
2023-01-04T11:49:21.054Z,12.80
2023-01-04T11:51:49.735Z,12.80
2023-01-04T11:54:21.651Z,12.80
2023-01-04T11:57:10.786Z,12.80
2023-01-04T11:59:40.349Z,12.80
2023-01-04T12:02:58.524Z,12.80
2023-01-04T12:05:29.576Z,12.80
2023-01-04T12:07:59.811Z,12.90
2023-01-04T12:10:29.535Z,12.90
2023-01-04T12:13:01.619Z,12.90
2023-01-04T12:15:39.907Z,12.90
2023-01-04T12:18:18.501Z,12.90
2023-01-04T12:20:47.325Z,12.90
2023-01-04T12:23:16.171Z,12.90
2023-01-04T12:25:51.143Z,12.90
2023-01-04T12:28:39.843Z,12.90
2023-01-04T12:31:32.487Z,13.00
2023-01-04T12:34:42.663Z,13.00
2023-01-04T12:37:12.755Z,13.00
2023-01-04T12:39:44.765Z,13.00
2023-01-04T12:42:28.318Z,13.00
2023-01-04T12:45:19.298Z,13.00
2023-01-04T12:48:10.889Z,13.00
2023-01-04T12:51:32.682Z,13.00
2023-01-04T12:54:04.281Z,13.00
2023-01-04T12:57:28.333Z,13.00
2023-01-04T13:00:01.569Z,13.00
2023-01-04T13:02:32.586Z,13.00
2023-01-04T13:05:53.976Z,13.00
2023-01-04T13:07:57.172Z,13.00
2023-01-04T13:10:34.092Z,13.00
2023-01-04T13:13:30.314Z,13.10
2023-01-04T13:16:16.877Z,13.10
2023-01-04T13:18:50.362Z,13.00
2023-01-04T13:21:27.829Z,13.10
2023-01-04T13:24:02.393Z,13.10
2023-01-04T13:26:39.410Z,13.10
2023-01-04T13:29:27.538Z,13.10
2023-01-04T13:31:58.960Z,13.10
2023-01-04T13:34:32.073Z,13.10
2023-01-04T13:37:23.173Z,13.20
2023-01-04T13:40:02.360Z,13.20
2023-01-04T13:42:33.868Z,13.20
2023-01-04T13:46:06.193Z,13.20
2023-01-04T13:48:39.906Z,13.20
2023-01-04T13:51:18.237Z,13.20
2023-01-04T13:53:59.132Z,13.30
2023-01-04T13:56:31.906Z,13.30
2023-01-04T13:59:01.082Z,13.20
2023-01-04T14:01:32.061Z,13.30
2023-01-04T14:04:03.051Z,13.30
2023-01-04T14:06:35.706Z,13.30
2023-01-04T14:09:14.432Z,13.30
2023-01-04T14:12:09.642Z,13.30
2023-01-04T14:14:51.022Z,13.30
2023-01-04T14:17:44.482Z,13.40
2023-01-04T14:20:37.565Z,13.40
2023-01-04T14:23:06.622Z,13.40
2023-01-04T14:25:49.231Z,13.40
2023-01-04T14:28:52.035Z,13.40
2023-01-04T14:31:38.520Z,13.40
2023-01-04T14:34:15.709Z,13.40
2023-01-04T14:36:44.932Z,13.40
2023-01-04T14:39:39.912Z,13.40
2023-01-04T14:42:26.548Z,13.40
2023-01-04T14:44:56.793Z,13.40
2023-01-04T14:47:25.461Z,13.40
2023-01-04T14:49:54.749Z,13.40
2023-01-04T14:52:24.973Z,13.40
2023-01-04T14:54:53.437Z,13.40
2023-01-04T14:57:22.176Z,13.40
2023-01-04T14:59:50.906Z,13.50
2023-01-04T15:02:22.656Z,13.40
2023-01-04T15:04:51.282Z,13.40
2023-01-04T15:07:35.978Z,13.40
2023-01-04T15:10:06.508Z,13.40
2023-01-04T15:12:34.936Z,13.50
2023-01-04T15:15:04.490Z,13.50
2023-01-04T15:17:34.317Z,13.50
2023-01-04T15:20:03.099Z,13.50
2023-01-04T15:22:31.821Z,13.50
2023-01-04T15:25:00.553Z,13.50
2023-01-04T15:27:31.431Z,13.50
2023-01-04T15:30:02.102Z,13.50
2023-01-04T15:32:30.557Z,13.50
2023-01-04T15:35:00.651Z,13.50
2023-01-04T15:37:29.914Z,13.50
2023-01-04T15:40:02.748Z,13.50
2023-01-04T15:42:49.150Z,13.60
2023-01-04T15:45:18.086Z,13.50
2023-01-04T15:47:46.465Z,13.60
2023-01-04T15:50:16.485Z,13.60
2023-01-04T15:52:44.989Z,13.60
2023-01-04T15:55:15.136Z,13.60
2023-01-04T15:57:44.420Z,13.60
2023-01-04T16:00:14.928Z,13.60
2023-01-04T16:02:43.591Z,13.60
2023-01-04T16:05:12.190Z,13.60
2023-01-04T16:07:42.247Z,13.60
2023-01-04T16:10:11.815Z,13.60
2023-01-04T16:12:43.286Z,13.70
2023-01-04T16:15:15.940Z,13.70
2023-01-04T16:17:46.655Z,13.60
2023-01-04T16:20:18.042Z,13.70
2023-01-04T16:22:48.440Z,13.70
2023-01-04T16:29:51.529Z,13.70
2023-01-04T16:32:20.813Z,13.70
2023-01-04T16:34:51.513Z,13.70
2023-01-04T16:37:20.449Z,13.70
2023-01-04T16:40:08.549Z,13.70
2023-01-04T16:42:38.658Z,13.70
2023-01-04T16:45:09.262Z,13.70
2023-01-04T16:47:42.498Z,13.70
2023-01-04T16:50:12.837Z,13.70
2023-01-04T16:52:41.488Z,13.70
2023-01-04T16:55:12.352Z,13.70
2023-01-04T16:57:40.869Z,13.70
2023-01-04T17:00:11.077Z,13.70
2023-01-04T17:02:39.788Z,13.70
2023-01-04T17:05:09.610Z,13.70
2023-01-04T17:07:38.187Z,13.70
2023-01-04T17:10:08.439Z,13.70
2023-01-04T17:12:47.708Z,13.70
2023-01-04T17:18:07.607Z,13.70
2023-01-04T17:20:36.092Z,13.70
2023-01-04T17:23:04.980Z,13.70
2023-01-04T17:25:33.484Z,13.70
2023-01-04T17:28:03.638Z,13.70
2023-01-04T17:30:32.292Z,13.70
2023-01-04T17:33:00.735Z,13.70
2023-01-04T17:35:29.258Z,13.70
2023-01-04T17:37:57.845Z,13.70
2023-01-04T17:40:26.225Z,13.60
2023-01-04T17:42:54.691Z,13.60
2023-01-04T17:45:24.792Z,13.60
2023-01-04T17:47:54.195Z,13.60
2023-01-04T17:50:23.162Z,13.60
2023-01-04T17:52:51.886Z,13.60
2023-01-04T17:55:21.978Z,13.60
2023-01-04T17:57:50.490Z,13.60
2023-01-04T18:00:19.932Z,13.60
2023-01-04T18:02:49.937Z,13.60
2023-01-04T18:05:18.725Z,13.60
2023-01-04T18:07:47.136Z,13.60
2023-01-04T18:10:27.090Z,13.60
2023-01-04T18:13:04.241Z,13.60
2023-01-04T18:15:36.223Z,13.60
2023-01-04T18:18:13.600Z,13.60
2023-01-04T18:20:46.333Z,13.60
2023-01-04T18:23:25.282Z,13.60
2023-01-04T18:25:54.070Z,13.60
2023-01-04T18:28:23.788Z,13.60
2023-01-04T18:30:52.301Z,13.60
2023-01-04T18:33:22.274Z,13.60
2023-01-04T18:35:50.774Z,13.60
2023-01-04T18:38:19.199Z,13.60
2023-01-04T18:40:47.868Z,13.60
2023-01-04T18:43:16.219Z,13.60
2023-01-04T18:45:44.690Z,13.60
2023-01-04T18:48:13.349Z,13.60
2023-01-04T18:50:43.159Z,13.60
2023-01-04T18:53:12.585Z,13.60
2023-01-04T18:55:41.235Z,13.60
2023-01-04T18:58:09.631Z,13.60
2023-01-04T19:00:38.138Z,13.60
2023-01-04T19:03:06.718Z,13.60
2023-01-04T19:05:35.594Z,13.60
2023-01-04T19:08:06.293Z,13.60
2023-01-04T19:10:34.936Z,13.60
2023-01-04T19:13:03.395Z,13.60
2023-01-04T19:15:31.848Z,13.60
2023-01-04T19:18:11.614Z,13.60
2023-01-04T19:20:40.958Z,13.60
2023-01-04T19:23:11.029Z,13.60
2023-01-04T19:25:40.168Z,13.60
2023-01-04T19:28:09.992Z,13.60
2023-01-04T19:30:40.156Z,13.60
2023-01-04T19:33:11.132Z,13.60
2023-01-04T19:35:42.417Z,13.60
2023-01-04T19:38:13.235Z,13.60
2023-01-04T19:40:42.833Z,13.60
2023-01-04T19:43:11.268Z,13.60
2023-01-04T19:45:42.439Z,13.60
2023-01-04T19:48:10.937Z,13.60
2023-01-04T19:50:39.601Z,13.60
2023-01-04T19:53:08.088Z,13.60
2023-01-04T19:55:40.776Z,13.60
2023-01-04T19:58:09.554Z,13.60
2023-01-04T20:00:38.113Z,13.60
2023-01-04T20:03:06.952Z,13.60
2023-01-04T20:05:35.887Z,13.60
2023-01-04T20:08:04.339Z,13.60
2023-01-04T20:10:33.140Z,13.60
2023-01-04T20:13:03.408Z,13.60
2023-01-04T20:15:32.007Z,13.60
2023-01-04T20:18:02.584Z,13.60
2023-01-04T20:20:31.032Z,13.60
2023-01-04T20:22:59.452Z,13.60
2023-01-04T20:25:29.126Z,13.60
2023-01-04T20:27:57.638Z,13.60
2023-01-04T20:30:27.882Z,13.60
2023-01-04T20:32:56.347Z,13.60
2023-01-04T20:35:25.857Z,13.60
2023-01-04T20:37:58.436Z,13.60
2023-01-04T20:40:27.996Z,13.60
2023-01-04T20:43:14.144Z,13.60
2023-01-04T20:45:46.125Z,13.60
2023-01-04T20:48:15.464Z,13.60
2023-01-04T20:50:44.728Z,13.60
2023-01-04T20:53:13.734Z,13.60
2023-01-04T20:55:44.318Z,13.60
2023-01-04T20:58:16.017Z,13.60
2023-01-04T21:00:47.862Z,13.60
2023-01-04T21:03:18.124Z,13.70
2023-01-04T21:05:47.265Z,13.60
2023-01-04T21:08:15.809Z,13.60
2023-01-04T21:10:45.459Z,13.60
2023-01-04T21:13:14.458Z,13.70
2023-01-04T21:15:43.084Z,13.60
2023-01-04T21:18:13.555Z,13.60
2023-01-04T21:20:42.695Z,13.60
2023-01-04T21:23:16.441Z,13.60
2023-01-04T21:25:46.034Z,13.60
2023-01-04T21:28:14.884Z,13.60
2023-01-04T21:30:45.327Z,13.60
2023-01-04T21:33:16.624Z,13.60
2023-01-04T21:35:45.060Z,13.60
2023-01-04T21:38:13.558Z,13.60
2023-01-04T21:40:43.675Z,13.60
2023-01-04T21:43:18.559Z,13.60
2023-01-04T21:45:47.103Z,13.60
2023-01-04T21:48:17.184Z,13.60
2023-01-04T21:50:45.642Z,13.70
2023-01-04T21:53:14.127Z,13.60
2023-01-04T21:55:42.928Z,13.60
2023-01-04T21:58:11.597Z,13.70
2023-01-04T22:00:40.905Z,13.60
2023-01-04T22:03:11.745Z,13.70
2023-01-04T22:05:41.675Z,13.60
2023-01-04T22:08:10.572Z,13.70
2023-01-04T22:10:39.226Z,13.70
2023-01-04T22:13:08.347Z,13.60
2023-01-04T22:15:41.179Z,13.60
2023-01-04T22:18:09.892Z,13.60
2023-01-04T22:20:38.306Z,13.70
2023-01-04T22:23:08.202Z,13.60
2023-01-04T22:25:37.310Z,13.60
2023-01-04T22:28:06.407Z,13.60
2023-01-04T22:30:34.786Z,13.60
2023-01-04T22:33:03.221Z,13.60
2023-01-04T22:35:31.718Z,13.60
2023-01-04T22:38:00.457Z,13.60
2023-01-04T22:40:30.300Z,13.60
2023-01-04T22:43:00.166Z,13.60
2023-01-04T22:45:28.711Z,13.60
2023-01-04T22:47:57.545Z,13.60
2023-01-04T22:50:26.131Z,13.60
2023-01-04T22:52:55.104Z,13.60
2023-01-04T22:55:26.543Z,13.60
2023-01-04T22:58:01.869Z,13.60
2023-01-04T23:00:30.467Z,13.70
2023-01-04T23:02:58.984Z,13.60
2023-01-04T23:05:27.810Z,13.60
2023-01-04T23:07:56.420Z,13.60
2023-01-04T23:10:25.526Z,13.60
2023-01-04T23:12:54.188Z,13.60
2023-01-04T23:15:24.131Z,13.60
2023-01-04T23:17:52.776Z,13.60
2023-01-04T23:20:21.539Z,13.60
2023-01-04T23:22:50.004Z,13.60
2023-01-04T23:25:18.588Z,13.60
2023-01-04T23:27:47.013Z,13.60
2023-01-04T23:30:16.584Z,13.70
2023-01-04T23:32:46.455Z,13.60
2023-01-04T23:35:15.964Z,13.70
2023-01-04T23:37:44.356Z,13.60
2023-01-04T23:40:13.624Z,13.60
2023-01-04T23:42:42.052Z,13.60
2023-01-04T23:45:11.357Z,13.60
2023-01-04T23:47:39.820Z,13.60
2023-01-04T23:50:10.799Z,13.60
2023-01-04T23:52:39.565Z,13.60
2023-01-04T23:55:09.013Z,13.60
2023-01-04T23:57:37.755Z,13.60
